CheckWX is a tool to help pilots better visualize weather data.  It is not intended as a substitute for an official pre-flight weather briefing.

00:05:36 UTC

KIND TAF
Indianapolis International Airport
Indianapolis, Indiana, USA
KIND 182320Z 1900/2006 VRB04KT P6SM FEW250

Oct-19@
00:00 UTC

Oct-19 @ 00:00 UTC

Oct-20@
06:00 UTC

Oct-20 @ 06:00 UTC

KIND 182320Z 1900/2006 VRB04KT P6SM FEW250
Wind
  • Variable at 4 KTS
Cloud Levels
  • Few at 25,000' AGL